Strona główna
METAR-TAF:

METAR-TAF

Lotnisko :

Mitchell Municipal Airport

Mitchell, Dakota Południowa, Stany Zjednoczone

Szerokość geograficzna: 43-46N, Długość geograficzna: 098-02W, wysokość: 397 m

Aktualna obserwacja pogody

Raport powstał 47 minut temu, godzina 11:53 UTC
Wiatr 6 kt od północno-północny zachód
Temperatura 18°C
Wilgotność 77%
Ciśnienie 1014 hPa
Widzialność: 16.1 km
bezchmurnie

METAR: KMHE 031153Z AUTO 34006KT 10SM CLR 18/14 A2995 RMK AO2 SLP135 70002 T01780139 10200 20156 55000

czas: 07:40 (12:40 UTC)


TAF: brakujący

Obserwacja i prognoza pogody dla ponad 4000 lotnisk (raport METAR i TAF).

Dostępne stacje oznaczono żółtymi i czerwonymi punktami na mapie.

Najedź kursorem aby zobaczyć nazwę stacji.

Kliknij aby zobaczyć obserwacje i prognozy pogody.

Aby zmienić mapę: kliknij na zielony przycisk z czarnym krzyżykiem, aby powiększyć; na zielony przycisk z myślnikiem, aby pomniejszyć; na zielone strzałki, aby przejść do map sąsiednich.


METAR-TAF: